Time;durP1;ratioP1;P1;durP2;ratioP2;P2;SDS_P1;SDS_P2;PMS_P1;PMS_P2;Temp;Humidity;BMP_temperature;BMP_pressure;BME280_temperature;BME280_humidity;BME280_pressure;Samples;Min_cycle;Max_cycle;Signal;HPM_P1;HPM_P2
2022/08/27 00:00:37;;;;;;;6.75;4.13;;;;;;;;;;5097172;27;20024;-70
2022/08/27 00:03:03;;;;;;;5.53;3.80;;;;;;;;;;5099741;27;20023;-70
2022/08/27 00:05:29;;;;;;;5.57;4.07;;;;;;;;;;5087363;28;20032;-70
2022/08/27 00:07:56;;;;;;;5.55;3.83;;;;;;;;;;5098758;27;20034;-70
2022/08/27 00:10:23;;;;;;;4.20;3.70;;;;;;;;;;5094059;28;20460;-70
2022/08/27 00:12:50;;;;;;;4.03;3.63;;;;;;;;;;5101399;28;20076;-70
2022/08/27 00:15:16;;;;;;;4.15;3.75;;;;;;;;;;5094817;28;20514;-70
2022/08/27 00:17:44;;;;;;;5.03;3.33;;;;;;;;;;5091866;28;20111;-70
2022/08/27 00:20:10;;;;;;;4.20;3.58;;;;;;;;;;5099508;28;20077;-69
2022/08/27 00:22:36;;;;;;;4.75;3.70;;;;;;;;;;5091995;27;20093;-69
2022/08/27 00:25:03;;;;;;;5.18;3.53;;;;;;;;;;5092508;28;20011;-70
2022/08/27 00:27:30;;;;;;;5.78;3.60;;;;;;;;;;5097257;28;20323;-70
2022/08/27 00:29:56;;;;;;;6.80;3.45;;;;;;;;;;5095187;27;20024;-70
2022/08/27 00:32:22;;;;;;;4.47;3.00;;;;;;;;;;5098184;27;20028;-70
2022/08/27 00:34:48;;;;;;;3.33;2.97;;;;;;;;;;5093395;27;20028;-70
2022/08/27 00:37:15;;;;;;;4.50;3.30;;;;;;;;;;5077318;28;20381;-70
2022/08/27 00:39:41;;;;;;;4.97;3.45;;;;;;;;;;5106369;27;20080;-69
2022/08/27 00:42:07;;;;;;;4.93;3.60;;;;;;;;;;5090786;27;20020;-70
2022/08/27 00:44:34;;;;;;;5.07;3.35;;;;;;;;;;5104011;27;20086;-70
2022/08/27 00:47:02;;;;;;;4.00;3.42;;;;;;;;;;5087930;28;20095;-70
2022/08/27 00:49:34;;;;;;;4.40;3.55;;;;;;;;;;5095712;27;20123;-70
2022/08/27 00:52:03;;;;;;;4.15;3.33;;;;;;;;;;5099348;27;20027;-69
2022/08/27 00:54:30;;;;;;;3.90;3.45;;;;;;;;;;5097320;27;20605;-70
2022/08/27 00:56:58;;;;;;;5.60;3.55;;;;;;;;;;5096739;27;20047;-70
2022/08/27 00:59:28;;;;;;;4.25;3.42;;;;;;;;;;5094141;27;20024;-69
2022/08/27 01:04:40;;;;;;;5.68;4.25;;;;;;;;;;5095269;27;20088;-70
2022/08/27 01:07:08;;;;;;;4.35;3.50;;;;;;;;;;5100545;27;20036;-70
2022/08/27 01:09:35;;;;;;;4.05;3.50;;;;;;;;;;5100362;27;20134;-69
2022/08/27 01:12:01;;;;;;;5.30;3.90;;;;;;;;;;5092483;27;20083;-70
2022/08/27 01:14:27;;;;;;;4.00;3.60;;;;;;;;;;5093552;27;20031;-69
2022/08/27 01:16:55;;;;;;;4.25;3.63;;;;;;;;;;5095186;27;20098;-70
2022/08/27 01:19:36;;;;;;;4.40;3.85;;;;;;;;;;5097632;27;20491;-70
2022/08/27 01:22:05;;;;;;;4.22;3.78;;;;;;;;;;5099251;27;20620;-70
2022/08/27 01:24:37;;;;;;;4.70;3.63;;;;;;;;;;5094242;27;20110;-69
2022/08/27 01:27:06;;;;;;;4.82;3.60;;;;;;;;;;5101034;27;20083;-70
2022/08/27 01:29:32;;;;;;;4.20;3.80;;;;;;;;;;5078330;28;20150;-70
2022/08/27 01:32:00;;;;;;;5.88;3.90;;;;;;;;;;5099814;27;20059;-70
2022/08/27 01:34:26;;;;;;;5.85;3.92;;;;;;;;;;5099094;28;20460;-67
2022/08/27 01:36:52;;;;;;;4.47;3.55;;;;;;;;;;5091190;27;21545;-70
2022/08/27 01:39:18;;;;;;;7.40;3.40;;;;;;;;;;5091746;27;20495;-70
2022/08/27 01:41:45;;;;;;;5.30;3.60;;;;;;;;;;5094129;27;20082;-70
2022/08/27 01:44:11;;;;;;;5.97;3.80;;;;;;;;;;5090948;27;20471;-70
2022/08/27 01:46:37;;;;;;;4.45;3.70;;;;;;;;;;5094131;27;20475;-69
2022/08/27 01:49:04;;;;;;;5.78;4.05;;;;;;;;;;5089497;27;20052;-70
2022/08/27 01:51:30;;;;;;;4.03;3.40;;;;;;;;;;5101951;27;20454;-70
2022/08/27 01:53:56;;;;;;;6.43;3.72;;;;;;;;;;5074658;28;20449;-70
2022/08/27 01:56:24;;;;;;;5.57;3.70;;;;;;;;;;5094842;28;20024;-70
2022/08/27 01:58:50;;;;;;;5.30;3.67;;;;;;;;;;5091824;28;20043;-70
2022/08/27 02:01:16;;;;;;;3.97;3.53;;;;;;;;;;5094251;28;20310;-70
2022/08/27 02:03:43;;;;;;;4.07;3.67;;;;;;;;;;5093281;28;20441;-70
2022/08/27 02:06:10;;;;;;;5.88;3.75;;;;;;;;;;5093779;27;20595;-70
2022/08/27 02:08:37;;;;;;;4.80;3.72;;;;;;;;;;5093325;28;20791;-70
2022/08/27 02:11:03;;;;;;;4.13;3.67;;;;;;;;;;5084554;28;20065;-70
2022/08/27 02:13:29;;;;;;;4.97;4.10;;;;;;;;;;5091249;28;20040;-70
2022/08/27 02:15:56;;;;;;;5.75;3.63;;;;;;;;;;5090407;28;20485;-70
2022/08/27 02:18:22;;;;;;;5.60;3.90;;;;;;;;;;5094696;28;20039;-70
2022/08/27 02:20:48;;;;;;;3.97;3.50;;;;;;;;;;5089090;28;20567;-70
2022/08/27 02:23:15;;;;;;;4.88;3.75;;;;;;;;;;5094133;28;20470;-69
2022/08/27 02:25:42;;;;;;;4.07;3.22;;;;;;;;;;5091096;28;20274;-70
2022/08/27 02:28:08;;;;;;;4.75;3.60;;;;;;;;;;5090946;28;20057;-70
2022/08/27 02:30:36;;;;;;;3.30;3.00;;;;;;;;;;5091738;28;20028;-70
2022/08/27 02:33:04;;;;;;;3.65;3.35;;;;;;;;;;5091350;28;20032;-70
2022/08/27 02:35:34;;;;;;;5.65;3.38;;;;;;;;;;5089829;28;20027;-70
2022/08/27 02:38:01;;;;;;;4.07;3.50;;;;;;;;;;5091354;28;20312;-70
2022/08/27 02:40:28;;;;;;;5.85;3.55;;;;;;;;;;5087798;28;20126;-70
2022/08/27 02:42:54;;;;;;;6.97;3.65;;;;;;;;;;5071598;28;20379;-70
2022/08/27 02:45:20;;;;;;;5.20;3.50;;;;;;;;;;5099884;27;20114;-70
2022/08/27 02:47:47;;;;;;;4.93;3.45;;;;;;;;;;5098722;27;20035;-70
2022/08/27 02:50:13;;;;;;;4.07;3.63;;;;;;;;;;5094187;27;20530;-70
2022/08/27 02:52:40;;;;;;;3.70;3.40;;;;;;;;;;5090119;28;20502;-70
2022/08/27 02:55:06;;;;;;;4.80;3.65;;;;;;;;;;5087937;27;20190;-70
2022/08/27 02:57:33;;;;;;;4.13;3.65;;;;;;;;;;5089646;28;20036;-70
2022/08/27 03:00:00;;;;;;;3.85;3.40;;;;;;;;;;5100127;27;20016;-70
2022/08/27 03:02:26;;;;;;;3.90;3.50;;;;;;;;;;5094383;28;20501;-70
2022/08/27 03:04:53;;;;;;;3.78;3.38;;;;;;;;;;5092335;27;20020;-70
2022/08/27 03:07:22;;;;;;;4.00;3.20;;;;;;;;;;5092994;27;20028;-70
2022/08/27 03:09:48;;;;;;;4.22;3.55;;;;;;;;;;5089432;28;20027;-70
2022/08/27 03:12:14;;;;;;;6.20;3.33;;;;;;;;;;5088592;28;20058;-70
2022/08/27 03:14:41;;;;;;;4.70;3.55;;;;;;;;;;5097034;27;20051;-70
2022/08/27 03:19:54;;;;;;;3.60;3.30;;;;;;;;;;5064683;28;20032;-70
2022/08/27 03:22:20;;;;;;;4.00;3.35;;;;;;;;;;5087942;27;20442;-70
2022/08/27 03:24:46;;;;;;;4.97;3.50;;;;;;;;;;5092895;27;20096;-70
2022/08/27 03:27:14;;;;;;;3.50;3.20;;;;;;;;;;5085870;27;20042;-70
2022/08/27 03:29:40;;;;;;;5.20;3.65;;;;;;;;;;5087016;28;20389;-69
2022/08/27 03:32:06;;;;;;;5.10;3.35;;;;;;;;;;5086690;27;20035;-70
2022/08/27 03:34:33;;;;;;;4.05;3.50;;;;;;;;;;5087276;28;20028;-70
2022/08/27 03:37:00;;;;;;;3.78;3.38;;;;;;;;;;5080045;28;20278;-70
2022/08/27 03:39:26;;;;;;;3.25;2.95;;;;;;;;;;5088468;28;20547;-70
2022/08/27 03:41:54;;;;;;;3.88;3.28;;;;;;;;;;5063032;28;20506;-70
2022/08/27 03:44:20;;;;;;;4.90;3.13;;;;;;;;;;5087903;28;20085;-70
2022/08/27 03:46:46;;;;;;;4.18;3.67;;;;;;;;;;5087213;28;20036;-70
2022/08/27 03:49:12;;;;;;;4.40;3.42;;;;;;;;;;5085728;28;20537;-70
2022/08/27 03:51:39;;;;;;;5.28;3.63;;;;;;;;;;5092360;28;20031;-69
2022/08/27 03:54:05;;;;;;;5.32;3.45;;;;;;;;;;5086864;27;20107;-70
2022/08/27 03:56:38;;;;;;;4.57;3.90;;;;;;;;;;5088497;28;20097;-70
2022/08/27 03:59:04;;;;;;;4.97;3.60;;;;;;;;;;5068497;28;20411;-70
2022/08/27 04:01:31;;;;;;;4.82;3.60;;;;;;;;;;5089430;28;20035;-70
2022/08/27 04:03:57;;;;;;;4.70;3.38;;;;;;;;;;5084305;28;20030;-70
2022/08/27 04:06:23;;;;;;;3.78;3.28;;;;;;;;;;5083596;28;20040;-70
2022/08/27 04:08:49;;;;;;;5.28;3.70;;;;;;;;;;5086630;28;20541;-70
2022/08/27 04:11:16;;;;;;;4.88;3.47;;;;;;;;;;5075905;28;20097;-70
2022/08/27 04:13:43;;;;;;;6.57;3.92;;;;;;;;;;5085161;28;20058;-70
2022/08/27 04:16:09;;;;;;;5.60;3.17;;;;;;;;;;5086461;28;20035;-70
2022/08/27 04:18:37;;;;;;;6.30;3.83;;;;;;;;;;5083858;28;20068;-70
2022/08/27 04:21:07;;;;;;;4.43;3.78;;;;;;;;;;5080128;28;20506;-70
2022/08/27 04:23:34;;;;;;;5.10;3.60;;;;;;;;;;5085761;28;20026;-70
2022/08/27 04:26:04;;;;;;;4.20;3.75;;;;;;;;;;5086220;28;20031;-70
2022/08/27 04:28:30;;;;;;;5.68;3.60;;;;;;;;;;5089307;28;20482;-70
2022/08/27 04:30:56;;;;;;;6.35;4.07;;;;;;;;;;5066239;28;20016;-71
2022/08/27 04:33:23;;;;;;;16.67;4.05;;;;;;;;;;5083702;28;20035;-70
2022/08/27 04:35:57;;;;;;;4.72;3.83;;;;;;;;;;5089174;28;20695;-71
2022/08/27 04:38:23;;;;;;;4.78;3.63;;;;;;;;;;5087171;28;20070;-71
2022/08/27 04:43:34;;;;;;;5.60;3.53;;;;;;;;;;5086908;28;20609;-71
2022/08/27 04:46:00;;;;;;;8.63;3.83;;;;;;;;;;5083224;28;20051;-72
2022/08/27 04:48:26;;;;;;;4.55;3.92;;;;;;;;;;5083685;28;20017;-71
2022/08/27 04:50:53;;;;;;;5.97;4.22;;;;;;;;;;5087004;28;20153;-71
2022/08/27 04:53:19;;;;;;;4.82;3.60;;;;;;;;;;5090776;28;20546;-70
2022/08/27 04:55:47;;;;;;;7.97;4.15;;;;;;;;;;5089503;28;20028;-70
2022/08/27 04:58:14;;;;;;;6.03;3.90;;;;;;;;;;5090110;28;20108;-70
2022/08/27 05:00:41;;;;;;;5.38;4.13;;;;;;;;;;5084720;28;20446;-72
2022/08/27 05:03:07;;;;;;;6.60;3.97;;;;;;;;;;5082673;28;20031;-70
2022/08/27 05:05:34;;;;;;;6.50;3.60;;;;;;;;;;5092410;28;20030;-71
2022/08/27 05:08:00;;;;;;;7.85;3.70;;;;;;;;;;5085747;28;20449;-73
2022/08/27 05:10:26;;;;;;;4.22;3.80;;;;;;;;;;5089378;28;20020;-70
2022/08/27 05:12:52;;;;;;;4.20;3.63;;;;;;;;;;5091636;28;20107;-71
2022/08/27 05:15:18;;;;;;;5.63;4.05;;;;;;;;;;5091374;28;20898;-71
2022/08/27 05:17:44;;;;;;;6.32;4.10;;;;;;;;;;5095339;28;20055;-73
2022/08/27 05:20:11;;;;;;;5.38;4.22;;;;;;;;;;5090463;28;20015;-74
2022/08/27 05:22:38;;;;;;;4.97;4.40;;;;;;;;;;5090649;28;20029;-75
2022/08/27 05:25:05;;;;;;;5.45;4.13;;;;;;;;;;5090366;28;20039;-75
2022/08/27 05:27:31;;;;;;;7.22;4.68;;;;;;;;;;5086692;28;20036;-75
2022/08/27 05:29:57;;;;;;;7.95;4.85;;;;;;;;;;5075696;28;20032;-72
2022/08/27 05:32:24;;;;;;;9.20;4.68;;;;;;;;;;5089440;28;20034;-73
2022/08/27 05:34:50;;;;;;;6.68;5.65;;;;;;;;;;5092999;28;20015;-75
2022/08/27 05:37:16;;;;;;;9.07;6.05;;;;;;;;;;5091549;28;20027;-75
2022/08/27 05:39:42;;;;;;;8.38;5.22;;;;;;;;;;5094980;28;20379;-74
2022/08/27 05:42:09;;;;;;;8.40;5.50;;;;;;;;;;5093935;28;20032;-75
2022/08/27 05:44:35;;;;;;;6.20;4.50;;;;;;;;;;5087339;28;20719;-73
2022/08/27 05:47:02;;;;;;;5.10;4.60;;;;;;;;;;5089550;28;20214;-74
2022/08/27 05:49:28;;;;;;;5.05;4.43;;;;;;;;;;5094436;28;20032;-75
2022/08/27 05:51:54;;;;;;;6.20;4.72;;;;;;;;;;5090455;28;20035;-74
2022/08/27 05:54:20;;;;;;;5.13;4.38;;;;;;;;;;5069446;28;20050;-73
2022/08/27 05:56:48;;;;;;;5.18;4.60;;;;;;;;;;5089947;28;20032;-75
2022/08/27 06:01:59;;;;;;;5.38;4.78;;;;;;;;;;5095710;28;20035;-73
2022/08/27 06:04:25;;;;;;;9.75;4.22;;;;;;;;;;5090427;28;20613;-74
2022/08/27 06:06:52;;;;;;;7.15;4.60;;;;;;;;;;5095740;28;20392;-76
2022/08/27 06:09:20;;;;;;;6.40;4.50;;;;;;;;;;5073350;28;20279;-75
2022/08/27 06:11:47;;;;;;;5.53;4.82;;;;;;;;;;5095575;28;20491;-75
2022/08/27 06:14:13;;;;;;;6.57;4.78;;;;;;;;;;5090345;28;20095;-74
2022/08/27 06:16:39;;;;;;;4.93;4.35;;;;;;;;;;5084384;28;20104;-76
2022/08/27 06:19:06;;;;;;;4.93;3.80;;;;;;;;;;5090193;28;20069;-76
2022/08/27 06:21:33;;;;;;;6.47;4.57;;;;;;;;;;5089827;28;20038;-74
2022/08/27 06:24:00;;;;;;;5.55;4.78;;;;;;;;;;5087419;28;20027;-74
2022/08/27 06:26:26;;;;;;;4.90;4.05;;;;;;;;;;5089727;28;20311;-74
2022/08/27 06:28:53;;;;;;;6.70;4.18;;;;;;;;;;5084290;28;20012;-74
2022/08/27 06:31:23;;;;;;;8.18;4.65;;;;;;;;;;5092291;28;20032;-77
2022/08/27 06:33:51;;;;;;;4.63;3.97;;;;;;;;;;5084064;28;20472;-73
2022/08/27 06:36:19;;;;;;;7.75;4.65;;;;;;;;;;5086279;28;20246;-73
2022/08/27 06:38:46;;;;;;;7.03;4.30;;;;;;;;;;5084863;28;20020;-73
2022/08/27 06:41:13;;;;;;;8.05;3.80;;;;;;;;;;5084605;28;20044;-74
2022/08/27 06:43:40;;;;;;;6.20;3.90;;;;;;;;;;5071074;28;20444;-74
2022/08/27 06:46:08;;;;;;;4.55;3.92;;;;;;;;;;5089310;28;20070;-73
2022/08/27 06:48:34;;;;;;;4.28;3.53;;;;;;;;;;5085840;28;20023;-74
2022/08/27 06:51:06;;;;;;;5.82;3.30;;;;;;;;;;5087613;28;20110;-73
2022/08/27 06:53:32;;;;;;;3.92;3.08;;;;;;;;;;5091416;28;20061;-73
2022/08/27 06:55:59;;;;;;;4.60;3.40;;;;;;;;;;5071104;28;20022;-75
2022/08/27 06:58:25;;;;;;;4.43;3.65;;;;;;;;;;5087315;28;20028;-75
2022/08/27 07:00:52;;;;;;;4.97;3.45;;;;;;;;;;5083817;28;20035;-75
2022/08/27 07:03:18;;;;;;;5.20;3.40;;;;;;;;;;5084225;28;20028;-75
2022/08/27 07:05:44;;;;;;;4.18;3.40;;;;;;;;;;5088162;28;20141;-75
2022/08/27 07:08:10;;;;;;;3.70;3.30;;;;;;;;;;5088204;28;20032;-76
2022/08/27 07:10:37;;;;;;;3.63;3.13;;;;;;;;;;5088956;28;20020;-75
2022/08/27 07:13:03;;;;;;;4.05;3.08;;;;;;;;;;5090485;28;20149;-76
2022/08/27 07:15:30;;;;;;;5.35;3.30;;;;;;;;;;5089175;28;20513;-74
2022/08/27 07:17:56;;;;;;;6.40;3.00;;;;;;;;;;5090190;28;20428;-74
2022/08/27 07:20:22;;;;;;;4.68;3.10;;;;;;;;;;5091065;28;20072;-77
2022/08/27 07:22:49;;;;;;;3.60;3.00;;;;;;;;;;5092312;28;20160;-74
2022/08/27 07:25:20;;;;;;;5.28;3.22;;;;;;;;;;5088778;28;20534;-76
2022/08/27 07:27:49;;;;;;;5.60;2.88;;;;;;;;;;5088548;28;20578;-72
2022/08/27 07:30:17;;;;;;;6.63;3.38;;;;;;;;;;5089322;28;20051;-77
2022/08/27 07:32:43;;;;;;;4.20;3.25;;;;;;;;;;5066348;28;20434;-72
2022/08/27 07:35:10;;;;;;;4.80;3.33;;;;;;;;;;5078083;28;20023;-73
2022/08/27 07:37:36;;;;;;;3.92;3.08;;;;;;;;;;5084744;28;20016;-73
2022/08/27 07:40:07;;;;;;;7.20;3.55;;;;;;;;;;5082014;28;20118;-73
2022/08/27 07:45:18;;;;;;;4.82;3.33;;;;;;;;;;5083366;28;20039;-72
2022/08/27 07:47:45;;;;;;;6.03;3.30;;;;;;;;;;5087478;28;20038;-72
2022/08/27 07:50:11;;;;;;;4.53;3.20;;;;;;;;;;5085832;28;20514;-73
2022/08/27 07:52:37;;;;;;;6.80;3.10;;;;;;;;;;5085864;27;20028;-73
2022/08/27 07:55:04;;;;;;;5.85;3.67;;;;;;;;;;5087550;28;20030;-73
2022/08/27 07:57:30;;;;;;;4.82;3.38;;;;;;;;;;5085146;28;20059;-73
2022/08/27 07:59:57;;;;;;;7.15;3.03;;;;;;;;;;5082426;28;20107;-73
2022/08/27 08:02:23;;;;;;;3.75;3.40;;;;;;;;;;5081191;28;20031;-73
2022/08/27 08:04:50;;;;;;;4.53;3.17;;;;;;;;;;5083637;28;20024;-73
2022/08/27 08:07:16;;;;;;;4.65;3.72;;;;;;;;;;5081031;28;20043;-73
2022/08/27 08:09:42;;;;;;;6.18;3.30;;;;;;;;;;5081290;28;20028;-73
2022/08/27 08:12:09;;;;;;;3.95;3.40;;;;;;;;;;5089020;28;20108;-73
2022/08/27 08:14:36;;;;;;;4.63;3.42;;;;;;;;;;5085654;28;20473;-73
2022/08/27 08:17:02;;;;;;;6.05;3.85;;;;;;;;;;5088136;28;20073;-73
2022/08/27 08:19:29;;;;;;;5.43;3.35;;;;;;;;;;5087884;28;20631;-73
2022/08/27 08:21:55;;;;;;;4.07;3.10;;;;;;;;;;5085696;28;20514;-73
2022/08/27 08:24:22;;;;;;;5.70;3.30;;;;;;;;;;5089143;28;20478;-73
2022/08/27 08:26:48;;;;;;;4.20;3.38;;;;;;;;;;5080825;28;20036;-73
2022/08/27 08:29:15;;;;;;;4.28;3.75;;;;;;;;;;5088901;28;20024;-73
2022/08/27 08:31:41;;;;;;;5.60;3.55;;;;;;;;;;5085133;28;20093;-73
2022/08/27 08:34:08;;;;;;;4.35;3.47;;;;;;;;;;5086258;28;20051;-73
2022/08/27 08:36:34;;;;;;;6.55;3.10;;;;;;;;;;5086545;28;20016;-72
2022/08/27 08:39:01;;;;;;;4.15;3.10;;;;;;;;;;5088623;28;20015;-73
2022/08/27 08:41:28;;;;;;;4.47;3.03;;;;;;;;;;5083935;28;20062;-81
2022/08/27 08:43:55;;;;;;;5.40;3.38;;;;;;;;;;5088425;28;20257;-75
2022/08/27 08:46:36;;;;;;;4.97;3.10;;;;;;;;;;5074691;28;20111;-75
2022/08/27 08:49:10;;;;;;;5.40;3.30;;;;;;;;;;5093370;28;20106;-75
2022/08/27 08:51:39;;;;;;;5.50;3.50;;;;;;;;;;5084444;28;20377;-76
2022/08/27 08:54:08;;;;;;;4.65;3.58;;;;;;;;;;5093444;27;20023;-75
2022/08/27 08:56:40;;;;;;;7.28;3.10;;;;;;;;;;5085378;28;20266;-76
2022/08/27 08:59:39;;;;;;;5.82;3.10;;;;;;;;;;5088814;28;20031;-76
2022/08/27 09:02:09;;;;;;;6.85;3.22;;;;;;;;;;5027632;28;20654;-75
2022/08/27 09:04:36;;;;;;;3.63;2.80;;;;;;;;;;5089361;28;20052;-74
2022/08/27 09:07:07;;;;;;;5.78;3.33;;;;;;;;;;5094312;28;20114;-76
2022/08/27 09:09:34;;;;;;;3.33;3.00;;;;;;;;;;5095380;28;20016;-74
2022/08/27 09:12:13;;;;;;;5.35;3.20;;;;;;;;;;5091570;28;20035;-75
2022/08/27 09:14:46;;;;;;;8.10;2.92;;;;;;;;;;5090181;28;20028;-75
2022/08/27 09:17:13;;;;;;;5.45;3.58;;;;;;;;;;5091764;28;20024;-75
2022/08/27 09:19:41;;;;;;;4.55;3.33;;;;;;;;;;5096506;27;20520;-74
2022/08/27 09:22:27;;;;;;;3.50;2.92;;;;;;;;;;5092056;28;20535;-78
2022/08/27 09:25:13;;;;;;;4.15;3.10;;;;;;;;;;5082822;28;20139;-77
2022/08/27 09:27:41;;;;;;;4.78;3.03;;;;;;;;;;5063534;28;20068;-77
2022/08/27 09:30:12;;;;;;;5.75;3.20;;;;;;;;;;5068782;28;20031;-79
2022/08/27 09:32:39;;;;;;;3.67;2.95;;;;;;;;;;5073071;28;20426;-80
2022/08/27 09:35:10;;;;;;;3.75;2.67;;;;;;;;;;5090809;28;20654;-76
2022/08/27 09:37:40;;;;;;;3.27;2.67;;;;;;;;;;5088413;28;20028;-79
2022/08/27 09:40:08;;;;;;;4.13;2.70;;;;;;;;;;5088003;28;20036;-79
2022/08/27 09:42:42;;;;;;;3.22;2.75;;;;;;;;;;5087568;28;20062;-73
2022/08/27 09:45:09;;;;;;;4.55;3.03;;;;;;;;;;5088279;28;20066;-75
2022/08/27 09:47:52;;;;;;;3.42;2.83;;;;;;;;;;5086375;28;20701;-74
2022/08/27 09:50:19;;;;;;;3.08;2.78;;;;;;;;;;5098767;27;20032;-74
2022/08/27 09:52:53;;;;;;;3.78;2.80;;;;;;;;;;5085781;28;20070;-74
2022/08/27 09:55:45;;;;;;;3.00;2.38;;;;;;;;;;5084839;28;20114;-73
2022/08/27 09:58:22;;;;;;;3.55;2.70;;;;;;;;;;5089378;28;20096;-74
2022/08/27 10:00:57;;;;;;;4.10;2.55;;;;;;;;;;5086115;28;20038;-73
2022/08/27 10:03:24;;;;;;;3.85;2.88;;;;;;;;;;5089984;28;20161;-73
2022/08/27 10:05:52;;;;;;;4.85;2.83;;;;;;;;;;5085621;28;20078;-74
2022/08/27 10:08:18;;;;;;;4.80;2.75;;;;;;;;;;5090468;28;20020;-74
2022/08/27 10:10:47;;;;;;;5.25;3.50;;;;;;;;;;5089917;28;20042;-74
2022/08/27 10:13:17;;;;;;;4.18;3.42;;;;;;;;;;5088870;27;20431;-73
2022/08/27 10:15:56;;;;;;;5.55;3.60;;;;;;;;;;5085130;28;20127;-73
2022/08/27 10:18:25;;;;;;;4.50;3.40;;;;;;;;;;5088060;28;20032;-73
2022/08/27 10:21:09;;;;;;;4.35;3.13;;;;;;;;;;5087319;28;20394;-73
2022/08/27 10:23:36;;;;;;;3.28;2.97;;;;;;;;;;5087348;27;20103;-74
2022/08/27 10:26:11;;;;;;;4.35;3.55;;;;;;;;;;5088830;27;20209;-74
2022/08/27 10:29:13;;;;;;;5.25;3.22;;;;;;;;;;5093050;28;20089;-74
2022/08/27 10:31:51;;;;;;;4.20;3.60;;;;;;;;;;4989832;28;20038;-74
2022/08/27 10:34:25;;;;;;;6.10;3.25;;;;;;;;;;5079217;28;20057;-73
2022/08/27 10:37:17;;;;;;;3.83;2.95;;;;;;;;;;5083032;27;20031;-74
2022/08/27 10:39:53;;;;;;;5.00;3.35;;;;;;;;;;5080604;28;20056;-74
2022/08/27 10:42:29;;;;;;;4.70;3.28;;;;;;;;;;5081989;28;20521;-74
2022/08/27 10:45:11;;;;;;;5.30;4.10;;;;;;;;;;5086160;28;20044;-73
2022/08/27 10:47:43;;;;;;;11.80;8.50;;;;;;;;;;5087866;27;20116;-74
2022/08/27 10:50:21;;;;;;;5.88;4.43;;;;;;;;;;5084667;28;20089;-74
2022/08/27 10:52:50;;;;;;;5.75;3.97;;;;;;;;;;5087196;28;20033;-74
2022/08/27 10:55:22;;;;;;;6.22;5.05;;;;;;;;;;5087475;28;20588;-74
2022/08/27 10:57:55;;;;;;;6.38;4.70;;;;;;;;;;5091014;27;20028;-76
2022/08/27 11:00:22;;;;;;;4.47;3.67;;;;;;;;;;5081416;27;20058;-74
2022/08/27 11:03:02;;;;;;;4.93;3.50;;;;;;;;;;5087239;28;20106;-74
2022/08/27 11:05:48;;;;;;;4.13;3.50;;;;;;;;;;5084794;28;20043;-74
2022/08/27 11:08:24;;;;;;;3.92;3.60;;;;;;;;;;5070850;28;20086;-74
2022/08/27 11:10:53;;;;;;;6.93;3.80;;;;;;;;;;5086967;28;20024;-74
2022/08/27 11:13:33;;;;;;;7.32;3.83;;;;;;;;;;5079789;28;20134;-74
2022/08/27 11:16:01;;;;;;;4.20;3.80;;;;;;;;;;5083491;28;20028;-74
2022/08/27 11:18:41;;;;;;;6.35;4.05;;;;;;;;;;5085783;27;20024;-74
2022/08/27 11:21:16;;;;;;;5.80;3.42;;;;;;;;;;5087238;27;20122;-74
2022/08/27 11:23:45;;;;;;;5.55;3.90;;;;;;;;;;5066846;28;20027;-74
2022/08/27 11:26:12;;;;;;;4.40;3.03;;;;;;;;;;5088408;28;20028;-75
2022/08/27 11:28:41;;;;;;;6.50;4.07;;;;;;;;;;5078712;28;20039;-74
2022/08/27 11:31:33;;;;;;;6.20;3.70;;;;;;;;;;5076952;28;20020;-74
2022/08/27 11:34:03;;;;;;;4.78;3.35;;;;;;;;;;5080862;28;20040;-73
2022/08/27 11:36:32;;;;;;;5.53;3.78;;;;;;;;;;5087888;28;20032;-74
2022/08/27 11:39:04;;;;;;;5.10;3.25;;;;;;;;;;5080789;28;20374;-75
2022/08/27 11:41:36;;;;;;;4.68;3.50;;;;;;;;;;5087145;28;20048;-75
2022/08/27 11:44:02;;;;;;;5.10;3.50;;;;;;;;;;5067279;28;20168;-74
2022/08/27 11:46:42;;;;;;;4.20;3.38;;;;;;;;;;5082716;28;20122;-75
2022/08/27 11:49:09;;;;;;;5.13;3.80;;;;;;;;;;5084334;28;20657;-74
2022/08/27 11:51:36;;;;;;;4.25;3.60;;;;;;;;;;5085489;28;20134;-74
2022/08/27 11:54:03;;;;;;;4.63;2.92;;;;;;;;;;5085654;28;20043;-74
2022/08/27 11:56:29;;;;;;;4.88;3.30;;;;;;;;;;5085169;28;20030;-74
2022/08/27 11:58:55;;;;;;;8.90;4.25;;;;;;;;;;5083073;28;20024;-74
2022/08/27 12:01:30;;;;;;;5.30;3.25;;;;;;;;;;5089865;28;20240;-74
2022/08/27 12:04:07;;;;;;;5.03;3.65;;;;;;;;;;5088548;28;20035;-74
2022/08/27 12:06:53;;;;;;;3.63;3.08;;;;;;;;;;5093854;28;20031;-74
2022/08/27 12:09:21;;;;;;;7.00;3.97;;;;;;;;;;5088709;28;20020;-73
2022/08/27 12:12:06;;;;;;;4.70;3.58;;;;;;;;;;5079972;28;20404;-73
2022/08/27 12:14:44;;;;;;;6.57;3.50;;;;;;;;;;5086860;28;20053;-75
2022/08/27 12:17:13;;;;;;;4.32;3.63;;;;;;;;;;5084905;28;20027;-73
2022/08/27 12:19:55;;;;;;;4.28;3.42;;;;;;;;;;5082679;28;20074;-74
2022/08/27 12:23:38;;;;;;;4.72;3.60;;;;;;;;;;5085292;28;20016;-74
2022/08/27 12:25:23;;;;;;;3.72;3.28;;;;;;;;;;5082804;28;20052;-74
2022/08/27 12:28:01;;;;;;;4.50;3.60;;;;;;;;;;5088003;28;20050;-73
2022/08/27 12:30:28;;;;;;;5.00;3.83;;;;;;;;;;5086171;28;20043;-74
2022/08/27 12:32:55;;;;;;;5.97;3.63;;;;;;;;;;5080958;28;20419;-74
2022/08/27 12:35:22;;;;;;;3.70;3.40;;;;;;;;;;5082757;28;20047;-74
2022/08/27 12:37:50;;;;;;;4.00;3.35;;;;;;;;;;5085020;28;20039;-74
2022/08/27 12:40:22;;;;;;;3.72;3.38;;;;;;;;;;5085866;28;20092;-74
2022/08/27 12:42:48;;;;;;;3.72;3.38;;;;;;;;;;5081849;28;20059;-74
2022/08/27 12:45:25;;;;;;;6.40;3.70;;;;;;;;;;5077829;28;20054;-74
2022/08/27 12:47:53;;;;;;;4.85;3.55;;;;;;;;;;5065089;28;20921;-74
2022/08/27 12:50:25;;;;;;;5.30;3.80;;;;;;;;;;5086546;28;20180;-74
2022/08/27 12:53:00;;;;;;;5.80;4.10;;;;;;;;;;5086003;28;20042;-74
2022/08/27 12:55:36;;;;;;;4.32;3.40;;;;;;;;;;5079833;28;20028;-75
2022/08/27 12:58:23;;;;;;;4.90;3.63;;;;;;;;;;5084228;28;20016;-74
2022/08/27 13:01:08;;;;;;;5.63;3.38;;;;;;;;;;5084604;28;20072;-75
2022/08/27 13:03:45;;;;;;;4.75;3.50;;;;;;;;;;5084046;28;20056;-74
2022/08/27 13:06:17;;;;;;;8.13;4.22;;;;;;;;;;5082842;28;20027;-74
2022/08/27 13:08:44;;;;;;;5.18;3.65;;;;;;;;;;5087103;28;20084;-74
2022/08/27 13:11:16;;;;;;;5.80;3.70;;;;;;;;;;5084573;28;20026;-74
2022/08/27 13:13:42;;;;;;;4.10;3.30;;;;;;;;;;5083777;28;20107;-74
2022/08/27 13:16:09;;;;;;;4.60;4.18;;;;;;;;;;5070646;28;20844;-74
2022/08/27 13:18:35;;;;;;;4.82;3.65;;;;;;;;;;5088337;28;20400;-74
2022/08/27 13:21:14;;;;;;;7.65;3.50;;;;;;;;;;5087301;28;20039;-74
2022/08/27 13:23:55;;;;;;;4.10;3.70;;;;;;;;;;5085685;28;20023;-74
2022/08/27 13:26:23;;;;;;;4.55;3.65;;;;;;;;;;5081792;28;20122;-73
2022/08/27 13:28:49;;;;;;;5.45;3.53;;;;;;;;;;5090336;28;20091;-74
2022/08/27 13:31:16;;;;;;;4.90;3.65;;;;;;;;;;5086692;28;20557;-75
2022/08/27 13:33:43;;;;;;;4.22;3.40;;;;;;;;;;5091989;28;20043;-74
2022/08/27 13:36:10;;;;;;;4.45;3.75;;;;;;;;;;5070983;28;20023;-74
2022/08/27 13:38:41;;;;;;;4.15;3.72;;;;;;;;;;5086549;28;20027;-74
2022/08/27 13:41:23;;;;;;;5.35;3.40;;;;;;;;;;5079216;28;20083;-75
2022/08/27 13:43:49;;;;;;;4.90;3.55;;;;;;;;;;5071596;28;20057;-74
2022/08/27 13:46:23;;;;;;;6.13;3.75;;;;;;;;;;5089903;28;20114;-75
2022/08/27 13:48:53;;;;;;;4.30;3.30;;;;;;;;;;5085897;28;20035;-74
2022/08/27 13:51:30;;;;;;;6.43;3.70;;;;;;;;;;5073320;28;20108;-74
2022/08/27 13:54:14;;;;;;;5.22;3.55;;;;;;;;;;5089491;28;20621;-75
2022/08/27 13:56:47;;;;;;;5.20;3.63;;;;;;;;;;5088496;28;20439;-75
2022/08/27 13:59:16;;;;;;;4.72;3.88;;;;;;;;;;5088991;28;20552;-74
2022/08/27 14:01:53;;;;;;;4.00;3.55;;;;;;;;;;5089050;28;20368;-74
2022/08/27 14:04:25;;;;;;;5.88;3.50;;;;;;;;;;5087357;28;20027;-74
2022/08/27 14:06:52;;;;;;;3.85;3.30;;;;;;;;;;5088194;28;20034;-74
2022/08/27 14:09:26;;;;;;;4.28;3.85;;;;;;;;;;5075334;28;20037;-75
2022/08/27 14:12:00;;;;;;;4.38;3.80;;;;;;;;;;5091953;28;20027;-74
2022/08/27 14:14:26;;;;;;;3.90;3.28;;;;;;;;;;5089092;28;20031;-74
2022/08/27 14:16:59;;;;;;;4.10;3.55;;;;;;;;;;5093524;28;20024;-74
2022/08/27 14:19:32;;;;;;;4.30;3.58;;;;;;;;;;5089617;28;20035;-74
2022/08/27 14:21:59;;;;;;;4.97;3.60;;;;;;;;;;5083214;28;20107;-74
2022/08/27 14:24:26;;;;;;;4.85;3.55;;;;;;;;;;5090155;28;20036;-74
2022/08/27 14:26:54;;;;;;;4.18;3.78;;;;;;;;;;5090022;28;20176;-74
2022/08/27 14:29:20;;;;;;;5.93;3.67;;;;;;;;;;5084320;28;20114;-74
2022/08/27 14:31:47;;;;;;;3.63;3.20;;;;;;;;;;5089138;28;20031;-73
2022/08/27 14:34:13;;;;;;;4.20;3.55;;;;;;;;;;5066027;28;20024;-76
2022/08/27 14:36:41;;;;;;;4.88;3.60;;;;;;;;;;5092152;28;20032;-74
2022/08/27 14:39:08;;;;;;;4.60;3.88;;;;;;;;;;5089576;28;20035;-74
2022/08/27 14:41:34;;;;;;;6.93;3.72;;;;;;;;;;5087439;28;20051;-73
2022/08/27 14:44:00;;;;;;;4.63;3.35;;;;;;;;;;5085566;28;20084;-74
2022/08/27 14:46:28;;;;;;;5.32;3.22;;;;;;;;;;5068079;28;20031;-74
2022/08/27 14:48:55;;;;;;;5.95;3.45;;;;;;;;;;5086362;28;20027;-74
2022/08/27 14:51:24;;;;;;;4.57;3.63;;;;;;;;;;5090808;28;20179;-74
2022/08/27 14:53:50;;;;;;;4.15;3.20;;;;;;;;;;5087030;28;20024;-74
2022/08/27 14:56:17;;;;;;;5.72;3.83;;;;;;;;;;5089271;28;20020;-74
2022/08/27 14:58:43;;;;;;;7.05;3.80;;;;;;;;;;5064486;28;20052;-74
2022/08/27 15:01:09;;;;;;;9.45;4.47;;;;;;;;;;5086090;28;20024;-73
2022/08/27 15:03:38;;;;;;;4.57;3.72;;;;;;;;;;5082301;28;20540;-74
2022/08/27 15:06:04;;;;;;;5.03;3.67;;;;;;;;;;5085446;28;20550;-75
2022/08/27 15:08:31;;;;;;;4.70;3.75;;;;;;;;;;5086274;28;20123;-74